createdAt,value
2022-08-28T00:00:40.472Z,96.70
2022-08-28T00:03:09.757Z,96.70
2022-08-28T00:05:39.831Z,96.70
2022-08-28T00:08:10.814Z,96.70
2022-08-28T00:10:42.164Z,96.70
2022-08-28T00:13:15.892Z,96.70
2022-08-28T00:15:43.819Z,96.70
2022-08-28T00:18:12.244Z,96.70
2022-08-28T00:20:40.312Z,96.70
2022-08-28T00:23:09.772Z,96.70
2022-08-28T00:25:37.787Z,96.70
2022-08-28T00:28:13.482Z,96.70
2022-08-28T00:31:07.069Z,96.70
2022-08-28T00:33:36.617Z,96.70
2022-08-28T00:36:05.365Z,96.70
2022-08-28T00:38:34.940Z,96.70
2022-08-28T00:41:04.906Z,96.70
2022-08-28T00:43:36.375Z,96.70
2022-08-28T00:46:07.135Z,96.70
2022-08-28T00:48:35.073Z,96.70
2022-08-28T00:51:22.721Z,96.70
2022-08-28T00:53:58.047Z,96.70
2022-08-28T00:56:28.178Z,96.70
2022-08-28T00:58:58.716Z,96.70
2022-08-28T01:01:26.653Z,96.70
2022-08-28T01:03:54.420Z,96.70
2022-08-28T01:06:28.439Z,96.70
2022-08-28T01:08:59.100Z,96.70
2022-08-28T01:11:29.179Z,96.70
2022-08-28T01:14:01.961Z,96.70
2022-08-28T01:16:33.731Z,96.70
2022-08-28T01:19:03.949Z,96.70
2022-08-28T01:21:37.900Z,96.70
2022-08-28T01:24:11.995Z,96.70
2022-08-28T01:26:39.870Z,96.70
2022-08-28T01:29:08.718Z,96.70
2022-08-28T01:31:38.282Z,96.70
2022-08-28T01:34:06.892Z,96.70
2022-08-28T01:36:35.268Z,96.70
2022-08-28T01:39:08.619Z,96.70
2022-08-28T01:41:42.695Z,96.70
2022-08-28T01:44:10.637Z,96.70
2022-08-28T01:46:41.060Z,96.70
2022-08-28T01:49:12.379Z,96.70
2022-08-28T01:51:41.640Z,96.70
2022-08-28T01:54:12.070Z,96.70
2022-08-28T01:56:42.499Z,96.70
2022-08-28T01:59:12.532Z,96.70
2022-08-28T02:01:42.984Z,96.70
2022-08-28T02:04:12.044Z,96.70
2022-08-28T02:06:40.190Z,96.70
2022-08-28T02:09:14.360Z,96.70
2022-08-28T02:11:46.838Z,96.70
2022-08-28T02:14:16.970Z,96.70
2022-08-28T02:16:45.160Z,96.70
2022-08-28T02:19:13.207Z,96.70
2022-08-28T02:21:41.511Z,96.70
2022-08-28T02:24:09.779Z,96.70
2022-08-28T02:26:38.056Z,96.70
2022-08-28T02:29:07.721Z,96.70
2022-08-28T02:31:35.963Z,96.70
2022-08-28T02:34:04.806Z,96.70
2022-08-28T02:36:34.185Z,96.70
2022-08-28T02:39:02.715Z,96.70
2022-08-28T02:41:31.629Z,96.70
2022-08-28T02:43:59.998Z,96.70
2022-08-28T02:46:29.691Z,96.70
2022-08-28T02:48:57.974Z,96.70
2022-08-28T02:51:26.300Z,96.70
2022-08-28T02:53:54.683Z,96.70
2022-08-28T02:56:23.231Z,96.70
2022-08-28T02:58:51.425Z,96.70
2022-08-28T03:01:22.451Z,96.70
2022-08-28T03:03:52.260Z,96.70
2022-08-28T03:06:20.726Z,96.70
2022-08-28T03:08:49.334Z,96.70
2022-08-28T03:11:17.791Z,96.70
2022-08-28T03:13:45.964Z,96.70
2022-08-28T03:16:14.173Z,96.70
2022-08-28T03:18:42.532Z,96.70
2022-08-28T03:21:12.834Z,96.70
2022-08-28T03:23:40.975Z,96.70
2022-08-28T03:26:11.113Z,96.70
2022-08-28T03:28:41.064Z,96.70
2022-08-28T03:31:10.689Z,96.70
2022-08-28T03:33:42.668Z,96.70
2022-08-28T03:36:14.766Z,96.70
2022-08-28T03:38:42.950Z,96.70
2022-08-28T03:41:11.879Z,96.70
2022-08-28T03:43:40.436Z,96.70
2022-08-28T03:46:11.442Z,96.70
2022-08-28T03:48:42.201Z,96.70
2022-08-28T03:51:17.630Z,96.70
2022-08-28T03:53:47.301Z,96.70
2022-08-28T03:56:19.261Z,96.70
2022-08-28T03:58:47.460Z,96.70
2022-08-28T04:01:15.787Z,96.70
2022-08-28T04:03:44.715Z,96.70
2022-08-28T04:06:14.829Z,96.70
2022-08-28T04:08:43.556Z,96.70
2022-08-28T04:11:11.664Z,96.70
2022-08-28T04:13:39.884Z,96.70
2022-08-28T04:16:10.892Z,96.70
2022-08-28T04:18:40.492Z,96.70
2022-08-28T04:21:11.124Z,96.70
2022-08-28T04:23:45.319Z,96.70
2022-08-28T04:26:16.612Z,96.70
2022-08-28T04:28:45.523Z,96.70
2022-08-28T04:31:13.932Z,96.70
2022-08-28T04:33:42.764Z,96.70
2022-08-28T04:36:13.400Z,96.70
2022-08-28T04:38:44.291Z,96.70
2022-08-28T04:41:15.995Z,96.70
2022-08-28T04:43:45.024Z,96.70
2022-08-28T04:46:15.230Z,96.70
2022-08-28T04:48:43.748Z,96.70
2022-08-28T04:51:15.443Z,96.70
2022-08-28T04:53:45.183Z,96.70
2022-08-28T04:56:15.270Z,96.70
2022-08-28T04:58:44.494Z,96.70
2022-08-28T05:01:15.895Z,96.70
2022-08-28T05:03:44.109Z,96.70
2022-08-28T05:06:14.107Z,96.70
2022-08-28T05:08:42.867Z,96.70
2022-08-28T05:11:27.333Z,96.70
2022-08-28T05:14:02.542Z,96.70
2022-08-28T05:16:30.562Z,96.70
2022-08-28T05:19:00.660Z,96.70
2022-08-28T05:21:28.868Z,96.70
2022-08-28T05:23:59.401Z,96.70
2022-08-28T05:26:29.884Z,96.70
2022-08-28T05:28:59.654Z,96.70
2022-08-28T05:31:29.557Z,96.70
2022-08-28T05:33:59.590Z,96.70
2022-08-28T05:36:32.369Z,96.70
2022-08-28T05:39:02.716Z,96.70
2022-08-28T05:41:32.915Z,96.70
2022-08-28T05:44:02.972Z,96.70
2022-08-28T05:46:31.666Z,96.70
2022-08-28T05:49:05.649Z,96.70
2022-08-28T05:51:36.504Z,96.70
2022-08-28T05:54:04.907Z,96.70
2022-08-28T05:56:37.416Z,96.70
2022-08-28T05:59:06.506Z,96.70
2022-08-28T06:01:37.365Z,96.70
2022-08-28T06:04:08.819Z,96.70
2022-08-28T06:06:40.026Z,96.70
2022-08-28T06:09:11.315Z,96.70
2022-08-28T06:11:44.645Z,96.70
2022-08-28T06:14:16.230Z,96.70
2022-08-28T06:16:48.564Z,96.70
2022-08-28T06:19:17.690Z,96.70
2022-08-28T06:21:56.523Z,96.70
2022-08-28T06:24:25.354Z,96.70
2022-08-28T06:26:58.600Z,96.70
2022-08-28T06:29:27.811Z,96.70
2022-08-28T06:31:57.211Z,96.70
2022-08-28T06:34:25.498Z,96.70
2022-08-28T06:36:54.444Z,96.70
2022-08-28T06:39:23.058Z,96.70
2022-08-28T06:41:51.468Z,96.70
2022-08-28T06:44:22.090Z,96.70
2022-08-28T06:46:52.447Z,96.70
2022-08-28T06:49:21.230Z,96.70
2022-08-28T06:51:49.431Z,96.70
2022-08-28T06:54:22.134Z,96.70
2022-08-28T06:56:50.777Z,96.70
2022-08-28T06:59:20.928Z,96.70
2022-08-28T07:01:49.754Z,96.70
2022-08-28T07:04:18.040Z,96.70
2022-08-28T07:06:53.851Z,96.70
2022-08-28T07:09:23.767Z,96.70
2022-08-28T07:11:52.047Z,96.70
2022-08-28T07:14:21.897Z,96.70
2022-08-28T07:16:50.497Z,96.70
2022-08-28T07:19:20.146Z,96.70
2022-08-28T07:21:48.477Z,96.70
2022-08-28T07:24:17.357Z,96.70
2022-08-28T07:26:47.278Z,96.70
2022-08-28T07:29:15.839Z,96.70
2022-08-28T07:31:47.392Z,96.70
2022-08-28T07:34:17.888Z,96.70
2022-08-28T07:36:46.503Z,96.70
2022-08-28T07:39:15.838Z,96.70
2022-08-28T07:41:44.211Z,96.70
2022-08-28T07:44:33.346Z,96.70
2022-08-28T07:47:05.972Z,96.70
2022-08-28T07:49:35.901Z,96.70
2022-08-28T07:52:04.751Z,96.70
2022-08-28T07:54:32.697Z,96.70
2022-08-28T07:57:02.314Z,96.70
2022-08-28T07:59:34.274Z,96.70
2022-08-28T08:02:07.340Z,96.70
2022-08-28T08:04:48.572Z,96.70
2022-08-28T08:07:18.616Z,96.70
2022-08-28T08:09:48.995Z,96.70
2022-08-28T08:12:18.264Z,96.70
2022-08-28T08:14:50.324Z,96.70
2022-08-28T08:17:20.104Z,96.70
2022-08-28T08:19:49.382Z,96.70
2022-08-28T08:22:18.073Z,96.70
2022-08-28T08:24:46.273Z,96.70
2022-08-28T08:27:14.443Z,96.70
2022-08-28T08:29:42.548Z,96.70
2022-08-28T08:32:12.120Z,96.70
2022-08-28T08:34:43.380Z,96.70
2022-08-28T08:37:13.796Z,96.70
2022-08-28T08:39:43.434Z,96.70
2022-08-28T08:42:23.358Z,96.70
2022-08-28T08:44:52.628Z,96.70
2022-08-28T08:47:27.036Z,96.70
2022-08-28T08:49:58.860Z,96.70
2022-08-28T08:52:38.758Z,96.70
2022-08-28T08:55:26.558Z,96.70
2022-08-28T08:57:59.922Z,96.70
2022-08-28T09:00:29.020Z,96.70
2022-08-28T09:03:03.855Z,96.70
2022-08-28T09:05:45.628Z,96.70
2022-08-28T09:08:25.910Z,96.70
2022-08-28T09:11:03.142Z,96.70
2022-08-28T09:13:42.717Z,96.70
2022-08-28T09:16:21.266Z,96.70
2022-08-28T09:18:50.998Z,96.70
2022-08-28T09:21:31.676Z,96.70
2022-08-28T09:24:05.527Z,96.70
2022-08-28T09:26:35.037Z,96.70
2022-08-28T09:29:07.426Z,96.70
2022-08-28T09:31:37.918Z,96.70
2022-08-28T09:34:24.131Z,96.70
2022-08-28T09:36:55.023Z,96.70
2022-08-28T09:39:26.182Z,96.70
2022-08-28T09:42:19.816Z,96.70
2022-08-28T09:47:45.982Z,96.70
2022-08-28T09:50:22.307Z,96.70
2022-08-28T09:52:54.245Z,96.70
2022-08-28T09:55:31.002Z,96.70
2022-08-28T09:57:59.488Z,96.70
2022-08-28T10:00:31.129Z,96.70
2022-08-28T10:03:07.728Z,96.70
2022-08-28T10:05:41.927Z,96.70
2022-08-28T10:08:23.989Z,96.70
2022-08-28T10:10:56.930Z,96.70
2022-08-28T10:13:31.417Z,96.70
2022-08-28T10:16:20.720Z,96.70
2022-08-28T10:18:56.690Z,96.70
2022-08-28T10:21:31.970Z,96.70
2022-08-28T10:24:32.937Z,96.70
2022-08-28T10:27:09.747Z,96.70
2022-08-28T10:29:51.156Z,96.70
2022-08-28T10:32:38.305Z,96.70
2022-08-28T10:35:12.415Z,96.70
2022-08-28T10:37:52.390Z,96.70
2022-08-28T10:40:26.469Z,96.70
2022-08-28T10:43:02.638Z,96.70
2022-08-28T10:45:32.576Z,96.70
2022-08-28T10:48:05.844Z,96.70
2022-08-28T10:50:40.177Z,96.70
2022-08-28T10:53:13.159Z,96.70
2022-08-28T10:55:54.418Z,96.70
2022-08-28T10:58:25.571Z,96.70
2022-08-28T11:00:55.607Z,96.70
2022-08-28T11:03:35.230Z,96.70
2022-08-28T11:06:08.708Z,96.70
2022-08-28T11:08:38.728Z,96.70
2022-08-28T11:11:13.831Z,96.70
2022-08-28T11:13:55.278Z,96.70
2022-08-28T11:16:25.748Z,96.70
2022-08-28T11:19:30.016Z,96.70
2022-08-28T11:22:04.747Z,96.70
2022-08-28T11:24:48.967Z,96.70
2022-08-28T11:27:31.558Z,96.70
2022-08-28T11:30:33.378Z,96.70
2022-08-28T11:33:10.071Z,96.70
2022-08-28T11:35:48.957Z,96.70
2022-08-28T11:39:10.696Z,96.70
2022-08-28T11:41:40.875Z,96.70
2022-08-28T11:44:45.047Z,96.70
2022-08-28T11:47:36.574Z,96.70
2022-08-28T11:50:13.595Z,96.70
2022-08-28T11:53:02.204Z,96.70
2022-08-28T11:55:45.695Z,96.70
2022-08-28T11:58:23.065Z,96.70
2022-08-28T12:00:58.142Z,96.70
2022-08-28T12:03:36.775Z,96.70
2022-08-28T12:06:06.144Z,96.70
2022-08-28T12:09:04.156Z,96.70
2022-08-28T12:12:09.744Z,96.70
2022-08-28T12:15:11.966Z,96.70
2022-08-28T12:17:53.259Z,96.70
2022-08-28T12:20:35.196Z,96.70
2022-08-28T12:23:25.283Z,96.70
2022-08-28T12:26:01.256Z,96.70
2022-08-28T12:28:32.134Z,96.70
2022-08-28T12:31:46.577Z,96.70
2022-08-28T12:34:27.084Z,96.70
2022-08-28T12:36:59.457Z,96.70
2022-08-28T12:39:29.385Z,96.70
2022-08-28T12:41:57.906Z,96.70
2022-08-28T12:44:29.098Z,96.70
2022-08-28T12:46:58.804Z,96.70
2022-08-28T12:49:32.555Z,96.70
2022-08-28T12:52:16.844Z,96.70
2022-08-28T12:54:46.154Z,96.70
2022-08-28T12:57:18.076Z,96.70
2022-08-28T12:59:47.965Z,96.70
2022-08-28T13:02:27.190Z,96.70
2022-08-28T13:05:00.829Z,96.70
2022-08-28T13:07:32.505Z,96.70
2022-08-28T13:10:04.793Z,96.70
2022-08-28T13:12:54.262Z,96.70
2022-08-28T13:15:45.812Z,96.70
2022-08-28T13:18:39.872Z,96.70
2022-08-28T13:21:34.134Z,96.70
2022-08-28T13:24:46.027Z,96.70
2022-08-28T13:27:24.021Z,96.70
2022-08-28T13:30:05.992Z,96.70
2022-08-28T13:32:37.034Z,96.70
2022-08-28T13:35:29.878Z,96.70
2022-08-28T13:38:02.743Z,96.70
2022-08-28T13:43:23.780Z,96.70
2022-08-28T13:45:52.877Z,96.70
2022-08-28T13:48:24.365Z,96.70
2022-08-28T13:50:59.011Z,96.70
2022-08-28T13:53:28.993Z,96.70
2022-08-28T13:56:00.647Z,96.70
2022-08-28T13:58:29.214Z,96.70
2022-08-28T14:00:57.949Z,96.70
2022-08-28T14:03:39.411Z,96.70
2022-08-28T14:06:11.972Z,96.70
2022-08-28T14:08:44.211Z,96.70
2022-08-28T14:11:14.701Z,96.70
2022-08-28T14:13:47.080Z,96.70
2022-08-28T14:16:24.188Z,96.70
2022-08-28T14:18:53.001Z,96.70
2022-08-28T14:21:21.223Z,96.70
2022-08-28T14:23:51.598Z,96.70
2022-08-28T14:26:20.550Z,96.70
2022-08-28T14:28:48.514Z,96.70
2022-08-28T14:31:17.066Z,96.70
2022-08-28T14:33:45.813Z,96.70
2022-08-28T14:36:18.356Z,96.70
2022-08-28T14:38:46.567Z,96.70
2022-08-28T14:41:17.325Z,96.70
2022-08-28T14:43:45.880Z,96.70
2022-08-28T14:46:16.696Z,96.70
2022-08-28T14:48:45.085Z,96.70
2022-08-28T14:51:22.090Z,96.70
2022-08-28T14:53:50.216Z,96.70
2022-08-28T14:56:20.016Z,96.70
2022-08-28T14:58:48.374Z,96.70
2022-08-28T15:01:24.016Z,96.70
2022-08-28T15:03:52.758Z,96.70
2022-08-28T15:06:20.644Z,96.70
2022-08-28T15:08:48.404Z,96.70
2022-08-28T15:11:20.809Z,96.70
2022-08-28T15:13:49.844Z,96.70
2022-08-28T15:16:29.856Z,96.70
2022-08-28T15:18:59.249Z,96.70
2022-08-28T15:21:36.715Z,96.70
2022-08-28T15:24:06.410Z,96.70
2022-08-28T15:26:37.151Z,96.70
2022-08-28T15:29:07.243Z,96.70
2022-08-28T15:31:37.769Z,96.70
2022-08-28T15:34:09.885Z,96.70
2022-08-28T15:36:42.962Z,96.70
2022-08-28T15:39:29.571Z,96.70
2022-08-28T15:41:59.296Z,96.70
2022-08-28T15:44:27.427Z,96.70
2022-08-28T15:46:57.370Z,96.70
2022-08-28T15:49:27.247Z,96.70
2022-08-28T15:51:55.085Z,96.70
2022-08-28T15:54:23.820Z,96.70
2022-08-28T15:56:53.761Z,96.70
2022-08-28T15:59:23.690Z,96.70
2022-08-28T16:01:53.596Z,96.70
2022-08-28T16:04:21.213Z,96.70
2022-08-28T16:06:49.206Z,96.70
2022-08-28T16:09:28.612Z,96.70
2022-08-28T16:11:56.262Z,96.70
2022-08-28T16:14:25.413Z,96.70
2022-08-28T16:16:53.341Z,96.70
2022-08-28T16:19:21.647Z,96.70
2022-08-28T16:21:49.432Z,96.70
2022-08-28T16:24:17.628Z,96.70
2022-08-28T16:26:45.418Z,96.70
2022-08-28T16:29:44.580Z,96.70
2022-08-28T16:32:12.849Z,96.70
2022-08-28T16:34:44.702Z,96.70
2022-08-28T16:37:13.253Z,96.70
2022-08-28T16:39:46.417Z,96.70
2022-08-28T16:42:14.742Z,96.70
2022-08-28T16:44:45.342Z,96.70
2022-08-28T16:47:14.008Z,96.70
2022-08-28T16:49:42.114Z,96.00
2022-08-28T16:52:10.799Z,94.20
2022-08-28T16:54:45.144Z,93.30
2022-08-28T16:57:17.275Z,93.40
2022-08-28T16:59:46.901Z,93.10
2022-08-28T17:02:15.948Z,93.40
2022-08-28T17:04:44.743Z,93.30
2022-08-28T17:07:14.857Z,93.00
2022-08-28T17:09:42.939Z,93.60
2022-08-28T17:12:11.541Z,94.90
2022-08-28T17:14:40.317Z,96.70
2022-08-28T17:17:09.568Z,96.70
2022-08-28T17:19:38.349Z,96.70
2022-08-28T17:22:27.356Z,96.70
2022-08-28T17:24:55.645Z,96.70
2022-08-28T17:27:23.699Z,96.70
2022-08-28T17:29:53.108Z,96.70
2022-08-28T17:32:22.433Z,96.70
2022-08-28T17:34:50.937Z,96.70
2022-08-28T17:37:20.912Z,96.70
2022-08-28T17:39:49.593Z,96.70
2022-08-28T17:42:17.502Z,96.70
2022-08-28T17:44:45.686Z,96.70
2022-08-28T17:47:16.623Z,96.70
2022-08-28T17:49:46.264Z,96.70
2022-08-28T17:52:14.115Z,96.70
2022-08-28T17:54:42.014Z,96.70
2022-08-28T17:57:09.717Z,96.70
2022-08-28T17:59:38.411Z,96.70
2022-08-28T18:02:06.270Z,96.70
2022-08-28T18:04:34.390Z,96.70
2022-08-28T18:07:04.154Z,96.70
2022-08-28T18:09:32.142Z,96.70
2022-08-28T18:12:00.091Z,96.70
2022-08-28T18:14:41.572Z,96.70
2022-08-28T18:17:11.556Z,96.70
2022-08-28T18:19:44.988Z,96.70
2022-08-28T18:22:16.962Z,96.70
2022-08-28T18:24:45.372Z,96.70
2022-08-28T18:27:13.399Z,96.70
2022-08-28T18:29:41.283Z,96.70
2022-08-28T18:32:16.131Z,96.70
2022-08-28T18:34:44.054Z,96.70
2022-08-28T18:37:13.930Z,96.70
2022-08-28T18:39:42.257Z,96.70
2022-08-28T18:42:12.862Z,96.70
2022-08-28T18:44:40.689Z,96.70
2022-08-28T18:47:08.631Z,96.70
2022-08-28T18:49:36.421Z,96.70
2022-08-28T18:52:04.791Z,96.70
2022-08-28T18:54:34.727Z,96.70
2022-08-28T18:57:04.623Z,96.70
2022-08-28T18:59:33.965Z,96.70
2022-08-28T19:02:03.889Z,96.70
2022-08-28T19:04:33.515Z,96.70
2022-08-28T19:07:01.658Z,96.70
2022-08-28T19:09:32.446Z,96.70
2022-08-28T19:12:03.587Z,96.70
2022-08-28T19:14:32.265Z,96.70
2022-08-28T19:17:01.177Z,96.70
2022-08-28T19:19:34.566Z,96.70
2022-08-28T19:22:03.115Z,96.70
2022-08-28T19:24:33.920Z,96.70
2022-08-28T19:27:04.067Z,96.70
2022-08-28T19:29:33.036Z,96.70
2022-08-28T19:32:02.318Z,96.70
2022-08-28T19:34:32.577Z,96.70
2022-08-28T19:37:02.167Z,96.70
2022-08-28T19:39:31.166Z,96.70
2022-08-28T19:42:01.147Z,96.70
2022-08-28T19:44:31.615Z,96.70
2022-08-28T19:47:00.645Z,96.70
2022-08-28T19:49:30.055Z,96.70
2022-08-28T19:51:58.327Z,96.70
2022-08-28T19:54:27.058Z,96.70
2022-08-28T19:56:56.166Z,96.70
2022-08-28T19:59:27.146Z,96.70
2022-08-28T20:01:57.866Z,96.70
2022-08-28T20:04:26.978Z,96.70
2022-08-28T20:06:56.357Z,96.70
2022-08-28T20:09:27.196Z,96.70
2022-08-28T20:11:56.337Z,96.70
2022-08-28T20:14:24.596Z,96.70
2022-08-28T20:16:55.037Z,96.70
2022-08-28T20:19:28.716Z,96.70
2022-08-28T20:21:57.707Z,96.70
2022-08-28T20:24:27.930Z,96.70
2022-08-28T20:26:56.868Z,96.70
2022-08-28T20:29:26.287Z,96.70
2022-08-28T20:31:54.927Z,96.70
2022-08-28T20:34:24.797Z,96.70
2022-08-28T20:36:54.587Z,96.70
2022-08-28T20:39:24.348Z,96.70
2022-08-28T20:41:54.749Z,96.70
2022-08-28T20:44:23.450Z,96.70
2022-08-28T20:46:53.737Z,96.70
2022-08-28T20:49:24.856Z,96.70
2022-08-28T20:51:53.790Z,96.70
2022-08-28T20:54:24.555Z,96.70
2022-08-28T20:56:55.785Z,96.70
2022-08-28T20:59:28.896Z,96.70
2022-08-28T21:02:10.316Z,96.70
2022-08-28T21:04:41.543Z,96.70
2022-08-28T21:07:10.125Z,96.70
2022-08-28T21:10:02.194Z,96.70
2022-08-28T21:12:26.966Z,96.70
2022-08-28T21:14:55.166Z,96.70
2022-08-28T21:17:29.891Z,96.70
2022-08-28T21:20:02.981Z,96.70
2022-08-28T21:22:32.988Z,96.70
2022-08-28T21:25:04.498Z,96.70
2022-08-28T21:27:32.864Z,96.70
2022-08-28T21:30:01.744Z,96.70
2022-08-28T21:32:34.190Z,96.70
2022-08-28T21:35:06.574Z,96.70
2022-08-28T21:37:35.196Z,96.70
2022-08-28T21:40:04.143Z,96.70
2022-08-28T21:42:32.335Z,96.70
2022-08-28T21:45:08.397Z,96.70
2022-08-28T21:47:39.730Z,96.70
2022-08-28T21:50:11.470Z,96.70
2022-08-28T21:52:40.564Z,96.70
2022-08-28T21:55:12.749Z,96.70
2022-08-28T21:57:41.520Z,96.70
2022-08-28T22:00:15.350Z,96.70
2022-08-28T22:02:44.130Z,96.70
2022-08-28T22:05:14.410Z,96.70
2022-08-28T22:07:44.571Z,96.70
2022-08-28T22:10:13.359Z,96.70
2022-08-28T22:12:41.808Z,96.70
2022-08-28T22:15:10.902Z,96.70
2022-08-28T22:17:39.209Z,96.70
2022-08-28T22:20:08.656Z,96.70
2022-08-28T22:22:56.941Z,96.70
2022-08-28T22:25:25.580Z,96.70
2022-08-28T22:27:54.058Z,96.70
2022-08-28T22:30:22.840Z,96.70
2022-08-28T22:32:52.567Z,96.70
2022-08-28T22:35:20.807Z,96.70
2022-08-28T22:37:50.631Z,96.70
2022-08-28T22:40:19.061Z,96.70
2022-08-28T22:42:47.869Z,96.70
2022-08-28T22:45:16.422Z,96.70
2022-08-28T22:47:44.959Z,96.70
2022-08-28T22:50:13.179Z,96.70
2022-08-28T22:52:43.648Z,96.70
2022-08-28T22:55:14.659Z,96.70
2022-08-28T22:57:43.358Z,96.70
2022-08-28T23:00:13.920Z,96.70
2022-08-28T23:02:43.465Z,96.70
2022-08-28T23:05:12.129Z,96.70
2022-08-28T23:07:40.767Z,96.70
2022-08-28T23:10:09.901Z,96.70
2022-08-28T23:12:39.998Z,96.70
2022-08-28T23:15:10.484Z,96.70
2022-08-28T23:17:38.564Z,96.70
2022-08-28T23:20:11.837Z,96.70
2022-08-28T23:22:40.482Z,96.70
2022-08-28T23:25:13.343Z,96.70
2022-08-28T23:27:43.110Z,96.70
2022-08-28T23:30:12.554Z,96.70
2022-08-28T23:32:40.616Z,96.70
2022-08-28T23:35:10.662Z,96.70
2022-08-28T23:37:40.933Z,96.70
2022-08-28T23:40:13.742Z,96.70
2022-08-28T23:42:44.166Z,96.70
2022-08-28T23:45:14.442Z,96.70
2022-08-28T23:47:42.575Z,96.70
2022-08-28T23:50:13.264Z,96.70
2022-08-28T23:52:43.114Z,96.70
2022-08-28T23:55:13.809Z,96.70
2022-08-28T23:57:44.249Z,96.70
